Página principal
METAR-TAF:

METAR-TAF

Aeroportos :

Aeroporto Internacional de Riga

Riga, Letónia

latitude: 56-55N, longitude: 023-58E, altura: 10 m

Observação actual do tempo

O boletim foi feito há 25 minutos, às 05:50 UTC
Vento 10 kt de nor-nordeste
Temperatura 16°C
Humidade 68%
Pressão 1024 hPa
Visibilidade 10 km ou mais
sem nuvens abaixo de 1500 metros e sem cumulonimbus

METAR: EVRA 120550Z 02010KT CAVOK 16/10 Q1024 NOSIG

Hora: 09:15 (06:15 UTC)

Previsão

O boletim foi feito há 1 hora e 15 minutos, às 05:00 UTC
Previsão válida de 12 às 06 UTC a 13 às 06 UTC
Vento 2 kt com direcção variável
Visibilidade 10 km ou mais
sem nuvens abaixo de 1500 metros e sem cumulonimbus
Tornando-se
de 12 às 07 UTC a 12 às 09 UTC
Vento 7 kt de norte
Tornando-se
de 12 às 16 UTC a 12 às 18 UTC
Vento 2 kt com direcção variável

TAF: EVRA 120500Z 1206/1306 VRB02KT CAVOK BECMG 1207/1209 35007KT BECMG 1216/1218 VRB02KT

Observações e previsões do tempo de mais de 4000 aeroportos (mensagens METAR e TAF).

As estações disponíveis são os pontos amarelos e vermelhos sobre o mapa.

Mova o rato sobre o mapa para ver o nome da estação.

Depois clique no ponto para visualizar as observações e previsões meteorológicas.

Para alterar o mapa : clique nos botões verdes com uma cruz preta para aumentar o zoom; no botão verde com uma pitada de zoom; ou nas setas verdes para mapas adjacentes.


METAR-TAF: